Time;durP1;ratioP1;P1;durP2;ratioP2;P2;SDS_P1;SDS_P2;PMS_P1;PMS_P2;Temp;Humidity;BMP_temperature;BMP_pressure;BME280_temperature;BME280_humidity;BME280_pressure;Samples;Min_cycle;Max_cycle;Signal;HPM_P1;HPM_P2
2024/03/07 00:01:03;;;;;;;3.67;1.67;;;21.20;54.10;;;;;;5035155;27;90077;-57
2024/03/07 00:03:29;;;;;;;3.03;1.75;;;21.20;54.00;;;;;;5014234;27;88581;-56
2024/03/07 00:05:56;;;;;;;3.83;2.13;;;21.20;53.90;;;;;;5027441;27;87360;-57
2024/03/07 00:08:22;;;;;;;2.97;1.67;;;21.20;54.00;;;;;;5018885;27;88198;-57
2024/03/07 00:10:49;;;;;;;4.10;2.00;;;21.20;54.00;;;;;;5025480;27;87810;-57
2024/03/07 00:13:14;;;;;;;4.50;2.10;;;21.20;54.00;;;;;;5020885;27;87211;-56
2024/03/07 00:15:41;;;;;;;4.18;1.90;;;21.20;53.90;;;;;;5013876;27;87012;-55
2024/03/07 00:18:10;;;;;;;3.75;1.80;;;21.20;54.10;;;;;;5033400;27;88050;-58
2024/03/07 00:20:35;;;;;;;4.18;1.90;;;21.10;53.90;;;;;;5026058;27;88384;-56
2024/03/07 00:23:02;;;;;;;4.57;1.80;;;21.20;54.20;;;;;;5018024;27;87395;-57
2024/03/07 00:25:31;;;;;;;4.97;2.17;;;21.10;54.00;;;;;;5041698;27;88819;-57
2024/03/07 00:28:02;;;;;;;6.00;1.80;;;21.10;54.30;;;;;;5017459;28;89202;-58
2024/03/07 00:30:29;;;;;;;2.72;1.30;;;21.10;54.20;;;;;;5013603;27;89255;-58
2024/03/07 00:32:55;;;;;;;2.58;2.20;;;21.10;54.10;;;;;;5013402;27;87189;-57
2024/03/07 00:35:22;;;;;;;3.47;1.60;;;21.10;54.10;;;;;;5016022;27;87699;-59
2024/03/07 00:37:49;;;;;;;3.75;1.60;;;21.10;54.30;;;;;;5028556;27;90904;-56
2024/03/07 00:40:15;;;;;;;3.30;1.95;;;21.10;54.10;;;;;;5032515;28;89594;-58
2024/03/07 00:42:41;;;;;;;4.53;1.85;;;21.10;54.20;;;;;;5031263;27;87533;-59
2024/03/07 00:45:07;;;;;;;4.13;2.63;;;21.10;54.20;;;;;;5011681;28;87937;-56
2024/03/07 00:47:35;;;;;;;3.50;1.55;;;21.10;54.20;;;;;;5039197;27;89029;-58
2024/03/07 00:50:01;;;;;;;4.35;2.00;;;21.10;54.20;;;;;;5024653;27;87977;-56
2024/03/07 00:52:27;;;;;;;6.40;1.65;;;21.10;54.20;;;;;;5020085;27;87794;-57
2024/03/07 00:54:53;;;;;;;3.60;1.85;;;21.10;54.10;;;;;;5046182;27;87736;-57
2024/03/07 00:57:19;;;;;;;2.55;1.40;;;21.00;54.00;;;;;;5047472;27;88604;-59
2024/03/07 00:59:44;;;;;;;3.30;1.70;;;21.00;54.00;;;;;;5012777;27;87641;-56
2024/03/07 01:02:10;;;;;;;4.50;1.77;;;21.00;54.10;;;;;;5011971;27;87527;-56
2024/03/07 01:04:36;;;;;;;5.13;1.95;;;21.00;54.00;;;;;;5027681;27;87576;-56
2024/03/07 01:07:03;;;;;;;6.57;2.15;;;21.00;54.10;;;;;;5011616;28;88144;-58
2024/03/07 01:09:29;;;;;;;2.88;1.60;;;21.00;54.10;;;;;;5012920;27;88491;-58
2024/03/07 01:11:55;;;;;;;3.40;1.83;;;21.00;54.00;;;;;;5024973;27;87091;-53
2024/03/07 01:14:22;;;;;;;3.55;2.03;;;21.00;54.00;;;;;;5026858;27;87393;-57
2024/03/07 01:16:48;;;;;;;4.15;1.65;;;21.00;54.10;;;;;;5019207;27;88993;-57
2024/03/07 01:19:14;;;;;;;6.35;2.22;;;21.00;54.00;;;;;;5011424;28;89862;-57
2024/03/07 01:21:40;;;;;;;4.10;1.80;;;20.90;53.90;;;;;;5014806;27;86922;-55
2024/03/07 01:24:06;;;;;;;5.03;2.30;;;20.90;54.00;;;;;;5031511;27;86938;-56
2024/03/07 01:26:33;;;;;;;3.58;1.58;;;20.90;54.00;;;;;;5032842;27;88147;-58
2024/03/07 01:28:59;;;;;;;4.90;2.38;;;20.90;53.90;;;;;;5033055;27;87760;-57
2024/03/07 01:31:25;;;;;;;2.90;1.50;;;20.90;54.00;;;;;;5032713;28;87470;-56
2024/03/07 01:33:51;;;;;;;8.93;2.28;;;20.90;54.60;;;;;;5016529;27;87867;-57
2024/03/07 01:36:19;;;;;;;3.58;2.00;;;20.90;54.00;;;;;;5013072;27;88105;-54
2024/03/07 01:38:45;;;;;;;3.92;1.70;;;20.90;54.10;;;;;;5022894;27;87643;-56
2024/03/07 01:41:10;;;;;;;4.43;2.00;;;20.90;54.00;;;;;;5016354;27;88128;-57
2024/03/07 01:43:36;;;;;;;3.85;1.77;;;20.90;54.60;;;;;;5021813;27;87095;-57
2024/03/07 01:46:03;;;;;;;2.72;1.70;;;20.80;54.00;;;;;;5024428;27;89027;-58
2024/03/07 01:48:29;;;;;;;4.88;2.35;;;20.80;54.10;;;;;;5032031;27;88479;-55
2024/03/07 01:51:04;;;;;;;2.90;1.55;;;20.80;54.00;;;;;;5026557;27;87970;-56
2024/03/07 01:53:30;;;;;;;3.10;1.92;;;20.80;54.00;;;;;;5031229;27;86996;-56
2024/03/07 01:55:58;;;;;;;2.55;1.60;;;20.80;54.00;;;;;;5028596;27;86966;-57
2024/03/07 01:58:24;;;;;;;3.58;2.03;;;20.80;54.00;;;;;;5029976;27;87882;-58
2024/03/07 02:00:50;;;;;;;3.53;2.08;;;20.80;54.00;;;;;;5043240;27;87369;-55
2024/03/07 02:03:17;;;;;;;4.57;2.22;;;20.80;53.90;;;;;;5030084;27;87448;-55
2024/03/07 02:05:43;;;;;;;2.85;1.63;;;20.80;54.00;;;;;;5027422;27;88551;-58
2024/03/07 02:08:11;;;;;;;2.55;1.80;;;20.80;53.80;;;;;;5023779;27;88695;-56
2024/03/07 02:10:38;;;;;;;3.60;1.98;;;20.80;53.80;;;;;;5028484;27;88291;-58
2024/03/07 02:13:04;;;;;;;4.68;2.40;;;20.80;54.00;;;;;;5024780;27;87825;-55
2024/03/07 02:15:30;;;;;;;5.65;2.33;;;20.80;54.00;;;;;;5009070;28;88885;-59
2024/03/07 02:17:57;;;;;;;3.17;1.65;;;20.70;53.90;;;;;;5018146;27;87276;-57
2024/03/07 02:20:23;;;;;;;3.30;1.90;;;20.70;53.80;;;;;;5032399;27;87839;-58
2024/03/07 02:22:50;;;;;;;2.90;1.80;;;20.70;53.70;;;;;;5031804;27;86790;-55
2024/03/07 02:25:16;;;;;;;3.17;2.13;;;20.70;53.80;;;;;;5031328;28;89190;-57
2024/03/07 02:27:42;;;;;;;3.45;1.98;;;20.70;53.70;;;;;;5020001;27;89011;-57
2024/03/07 02:30:08;;;;;;;3.10;1.95;;;20.70;53.80;;;;;;5018850;27;88180;-55
2024/03/07 02:32:38;;;;;;;2.63;1.88;;;20.70;54.50;;;;;;5024382;27;87346;-56
2024/03/07 02:35:04;;;;;;;;;;;20.70;54.00;;;;;;5026127;27;87150;-56
2024/03/07 02:37:31;;;;;;;2.95;1.73;;;20.70;53.90;;;;;;5010496;27;87247;-57
2024/03/07 02:39:56;;;;;;;3.78;1.88;;;20.70;53.90;;;;;;5012720;28;87536;-56
2024/03/07 02:42:22;;;;;;;3.95;2.55;;;20.70;53.70;;;;;;5008845;27;87308;-57
2024/03/07 02:44:49;;;;;;;3.50;2.15;;;20.70;53.70;;;;;;5014960;28;89106;-57
2024/03/07 02:47:15;;;;;;;3.28;1.95;;;20.70;53.70;;;;;;5039212;27;88641;-57
2024/03/07 02:49:41;;;;;;;3.00;1.70;;;20.70;53.70;;;;;;5021483;27;87111;-57
2024/03/07 02:52:07;;;;;;;2.63;1.75;;;20.60;54.30;;;;;;5023277;28;87494;-57
2024/03/07 02:54:34;;;;;;;4.13;1.77;;;20.60;53.60;;;;;;5021008;28;89893;-58
2024/03/07 02:57:00;;;;;;;4.55;2.10;;;20.60;53.60;;;;;;5011787;27;89178;-57
2024/03/07 02:59:25;;;;;;;4.00;1.85;;;20.60;53.70;;;;;;5027520;27;87056;-57
2024/03/07 03:01:51;;;;;;;3.50;1.90;;;20.60;53.70;;;;;;5029972;27;87265;-54
2024/03/07 03:04:17;;;;;;;3.28;1.73;;;20.60;53.60;;;;;;5029278;28;87410;-58
2024/03/07 03:06:44;;;;;;;4.88;2.15;;;20.60;53.60;;;;;;5029660;27;87830;-59
2024/03/07 03:09:17;;;;;;;4.40;2.20;;;20.60;53.70;;;;;;5022687;27;87615;-56
2024/03/07 03:11:43;;;;;;;3.42;2.20;;;20.60;53.70;;;;;;5011869;27;86966;-58
2024/03/07 03:14:10;;;;;;;3.78;1.80;;;20.60;53.60;;;;;;5029686;27;89035;-58
2024/03/07 03:16:36;;;;;;;2.60;1.55;;;20.60;53.50;;;;;;5017696;27;87850;-57
2024/03/07 03:19:02;;;;;;;4.00;2.15;;;20.60;53.60;;;;;;5031782;28;88448;-57
2024/03/07 03:21:27;;;;;;;3.95;2.40;;;20.60;53.60;;;;;;5022606;27;87369;-56
2024/03/07 03:23:54;;;;;;;4.03;2.38;;;20.60;53.80;;;;;;5024371;27;88952;-56
2024/03/07 03:26:21;;;;;;;2.90;2.17;;;20.60;53.80;;;;;;5011050;27;87853;-58
2024/03/07 03:28:47;;;;;;;3.28;1.70;;;20.50;53.60;;;;;;5010290;27;87187;-56
2024/03/07 03:31:14;;;;;;;3.58;2.13;;;20.60;53.70;;;;;;5028604;28;87444;-57
2024/03/07 03:33:40;;;;;;;4.28;2.65;;;20.50;53.60;;;;;;5019490;27;88439;-54
2024/03/07 03:36:07;;;;;;;4.78;2.03;;;20.50;53.60;;;;;;5017078;27;87106;-57
2024/03/07 03:38:33;;;;;;;3.35;1.70;;;20.50;53.50;;;;;;5005405;28;87320;-57
2024/03/07 03:40:59;;;;;;;4.95;2.10;;;20.50;53.60;;;;;;5021193;28;87484;-57
2024/03/07 03:43:25;;;;;;;2.95;1.83;;;20.50;53.60;;;;;;5022280;27;91195;-57
2024/03/07 03:45:50;;;;;;;3.88;2.40;;;20.50;53.70;;;;;;5033544;27;88145;-57
2024/03/07 03:48:16;;;;;;;2.92;1.90;;;20.50;53.70;;;;;;5014807;27;86976;-57
2024/03/07 03:50:42;;;;;;;4.15;1.95;;;20.50;53.60;;;;;;5041426;27;87068;-58
2024/03/07 03:53:08;;;;;;;3.50;2.10;;;20.50;53.60;;;;;;5025146;27;88113;-58
2024/03/07 03:55:34;;;;;;;3.20;1.90;;;20.50;53.70;;;;;;5032464;27;87430;-58
2024/03/07 03:57:59;;;;;;;2.92;1.70;;;20.50;53.50;;;;;;5031815;27;87412;-56
2024/03/07 04:00:25;;;;;;;4.75;2.78;;;20.40;53.50;;;;;;5028703;27;88500;-57
2024/03/07 04:02:51;;;;;;;2.67;1.67;;;20.40;53.50;;;;;;5023098;27;90818;-57
2024/03/07 04:05:18;;;;;;;1.80;1.63;;;20.40;53.40;;;;;;5023125;27;87875;-58
2024/03/07 04:07:45;;;;;;;3.00;1.95;;;20.50;53.40;;;;;;5025841;27;88290;-57
2024/03/07 04:10:12;;;;;;;2.75;1.77;;;20.40;53.50;;;;;;5045510;27;88462;-54
2024/03/07 04:12:40;;;;;;;4.00;2.60;;;20.40;53.50;;;;;;5031182;27;89271;-57
2024/03/07 04:15:18;;;;;;;2.97;1.95;;;20.40;53.50;;;;;;5032839;27;87817;-57
2024/03/07 04:17:47;;;;;;;4.00;2.30;;;20.40;53.50;;;;;;5027053;27;87454;-57
2024/03/07 04:20:13;;;;;;;3.40;2.20;;;20.40;53.60;;;;;;5030273;27;86900;-52
2024/03/07 04:26:01;;;;;;;5.75;2.25;;;20.40;53.50;;;;;;5012866;27;86898;-57
2024/03/07 04:28:27;;;;;;;3.35;2.20;;;20.40;53.60;;;;;;5023551;27;87361;-55
2024/03/07 04:30:53;;;;;;;3.05;2.00;;;20.40;53.60;;;;;;5031739;28;87489;-55
2024/03/07 04:33:20;;;;;;;4.28;2.20;;;20.30;53.50;;;;;;5019153;27;89206;-56
2024/03/07 04:35:46;;;;;;;4.45;2.40;;;20.40;53.80;;;;;;5011262;27;88309;-58
2024/03/07 04:38:14;;;;;;;3.45;2.08;;;20.30;53.50;;;;;;5010382;27;87327;-57
2024/03/07 04:40:41;;;;;;;4.13;2.63;;;20.40;53.70;;;;;;5012740;27;87582;-56
2024/03/07 04:43:08;;;;;;;2.60;1.65;;;20.30;53.60;;;;;;5016141;28;87533;-58
2024/03/07 04:45:34;;;;;;;3.13;1.83;;;20.30;53.60;;;;;;5034699;27;88436;-57
2024/03/07 04:48:00;;;;;;;2.97;2.20;;;20.30;53.50;;;;;;5007250;27;87503;-58
2024/03/07 04:50:26;;;;;;;3.58;2.20;;;20.30;53.60;;;;;;5011425;27;86630;-56
2024/03/07 04:52:52;;;;;;;2.67;2.00;;;20.30;53.60;;;;;;5011435;27;88031;-58
2024/03/07 04:55:18;;;;;;;3.00;2.17;;;20.30;53.50;;;;;;5018527;27;88002;-55
2024/03/07 04:57:45;;;;;;;3.17;2.15;;;20.30;53.50;;;;;;5029358;27;88008;-58
2024/03/07 05:00:15;;;;;;;3.50;2.08;;;20.20;53.40;;;;;;5020508;27;87903;-57
2024/03/07 05:02:41;;;;;;;2.67;1.65;;;20.30;53.60;;;;;;5022583;27;88854;-58
2024/03/07 05:05:07;;;;;;;3.28;2.03;;;20.30;53.60;;;;;;5018734;27;87897;-58
2024/03/07 05:07:35;;;;;;;2.90;1.85;;;20.30;53.50;;;;;;5018785;27;86928;-58
2024/03/07 05:10:04;;;;;;;2.78;2.10;;;20.20;53.50;;;;;;5014165;28;87202;-56
2024/03/07 05:12:31;;;;;;;3.67;2.05;;;20.20;53.40;;;;;;5026895;27;88438;-58
2024/03/07 05:14:56;;;;;;;3.10;1.98;;;20.20;53.60;;;;;;5014993;27;87711;-56
2024/03/07 05:17:24;;;;;;;3.50;2.35;;;20.30;53.50;;;;;;5017124;27;87586;-58
2024/03/07 05:19:50;;;;;;;4.53;2.28;;;20.20;53.80;;;;;;5028217;27;88034;-58
2024/03/07 05:22:16;;;;;;;2.85;1.95;;;20.20;53.50;;;;;;5015482;28;89499;-57
2024/03/07 05:24:49;;;;;;;2.60;1.70;;;20.20;53.60;;;;;;5030854;27;88863;-59
2024/03/07 05:27:15;;;;;;;3.25;2.05;;;20.20;53.40;;;;;;5022481;27;87480;-57
2024/03/07 05:29:41;;;;;;;3.90;2.35;;;20.20;53.40;;;;;;5011587;27;87775;-57
2024/03/07 05:32:27;;;;;;;3.78;2.45;;;20.20;53.50;;;;;;5010911;27;88143;-58
2024/03/07 05:34:53;;;;;;;5.38;2.35;;;20.20;53.50;;;;;;5022181;27;88187;-58
2024/03/07 05:37:23;;;;;;;2.60;1.88;;;20.20;53.40;;;;;;5013201;28;86985;-59
2024/03/07 05:39:52;;;;;;;3.45;2.15;;;20.10;53.50;;;;;;5001568;27;88047;-58
2024/03/07 05:42:18;;;;;;;3.47;2.30;;;20.20;53.40;;;;;;5021298;27;88429;-55
2024/03/07 05:44:47;;;;;;;3.50;2.22;;;20.10;53.40;;;;;;5005064;27;87963;-59
2024/03/07 05:47:15;;;;;;;3.15;1.65;;;20.20;53.60;;;;;;4990505;28;88482;-56
2024/03/07 05:49:41;;;;;;;5.50;2.50;;;20.10;53.30;;;;;;4992021;27;87214;-58
2024/03/07 05:52:08;;;;;;;3.28;2.25;;;20.10;53.40;;;;;;4992208;28;88749;-58
2024/03/07 05:54:35;;;;;;;3.08;2.00;;;20.10;53.50;;;;;;5006495;27;88705;-59
2024/03/07 05:57:01;;;;;;;2.72;1.88;;;20.10;53.50;;;;;;5010326;27;87243;-57
2024/03/07 05:59:33;;;;;;;3.97;2.42;;;20.10;53.50;;;;;;5004122;27;87503;-56
2024/03/07 06:02:00;;;;;;;4.82;2.30;;;20.10;53.50;;;;;;5010043;28;87909;-54
2024/03/07 06:04:27;;;;;;;4.03;2.50;;;20.10;53.50;;;;;;5009978;27;88346;-58
2024/03/07 06:06:52;;;;;;;2.67;1.98;;;20.10;53.50;;;;;;5004280;28;87611;-57
2024/03/07 06:09:21;;;;;;;2.80;1.98;;;20.10;53.40;;;;;;5003834;27;86895;-55
2024/03/07 06:11:48;;;;;;;3.50;2.20;;;20.10;53.40;;;;;;4998970;27;91193;-58
2024/03/07 06:14:16;;;;;;;3.08;2.25;;;20.10;53.40;;;;;;4999431;27;88757;-56
2024/03/07 06:16:41;;;;;;;5.40;2.22;;;20.10;53.30;;;;;;4991001;28;87148;-57
2024/03/07 06:19:09;;;;;;;5.05;2.42;;;20.20;53.40;;;;;;5009006;28;87113;-65
2024/03/07 06:21:39;;;;;;;4.43;2.38;;;20.20;53.50;;;;;;5043922;27;91048;-59
2024/03/07 06:24:07;;;;;;;4.13;2.65;;;20.30;53.30;;;;;;5047875;27;88578;-59
2024/03/07 06:26:45;;;;;;;7.75;2.55;;;20.30;53.20;;;;;;5021652;27;87560;-59
2024/03/07 06:29:13;;;;;;;5.35;2.83;;;20.40;53.50;;;;;;5025255;27;87838;-58
2024/03/07 06:31:43;;;;;;;6.32;2.33;;;20.50;53.10;;;;;;5039516;27;89173;-55
2024/03/07 06:34:09;;;;;;;4.28;2.55;;;20.60;53.10;;;;;;5025078;28;89290;-55
2024/03/07 06:36:35;;;;;;;3.13;2.38;;;20.70;53.20;;;;;;5040213;27;87831;-53
2024/03/07 06:39:06;;;;;;;6.07;3.15;;;20.80;53.00;;;;;;5042573;27;88036;-55
2024/03/07 06:41:36;;;;;;;5.78;3.35;;;20.90;52.90;;;;;;5020905;27;87569;-54
2024/03/07 06:44:03;;;;;;;5.97;2.70;;;21.30;53.00;;;;;;5025297;28;90134;-56
2024/03/07 06:46:31;;;;;;;3.08;2.20;;;21.50;52.70;;;;;;5026916;27;87355;-55
2024/03/07 06:48:57;;;;;;;3.78;2.58;;;21.70;52.60;;;;;;5028446;27;88189;-57
2024/03/07 06:51:24;;;;;;;4.85;2.83;;;21.90;52.40;;;;;;5029067;27;88405;-55
2024/03/07 06:53:50;;;;;;;5.35;2.83;;;22.20;52.30;;;;;;5028952;27;88848;-53
2024/03/07 06:56:17;;;;;;;6.22;2.83;;;22.30;52.00;;;;;;5041837;27;86899;-55
2024/03/07 06:58:45;;;;;;;3.88;2.63;;;22.50;51.80;;;;;;5028879;27;87125;-57
2024/03/07 07:01:15;;;;;;;6.13;2.70;;;22.60;51.50;;;;;;5023769;28;90412;-56
2024/03/07 07:03:43;;;;;;;6.30;2.83;;;22.80;51.40;;;;;;5038221;27;91267;-56
2024/03/07 07:06:10;;;;;;;7.78;3.50;;;22.90;51.20;;;;;;5028100;27;88076;-57
2024/03/07 07:08:36;;;;;;;13.10;4.95;;;23.00;51.20;;;;;;5023758;27;87339;-57
2024/03/07 07:11:03;;;;;;;15.50;5.20;;;23.00;51.10;;;;;;5011247;27;88024;-54
2024/03/07 07:13:31;;;;;;;15.73;4.65;;;23.10;50.70;;;;;;5008781;27;87803;-57
2024/03/07 07:15:57;;;;;;;14.68;4.38;;;23.10;50.40;;;;;;5033005;27;87623;-57
2024/03/07 07:18:23;;;;;;;13.05;4.57;;;23.10;50.40;;;;;;5030026;27;89396;-54
2024/03/07 07:20:53;;;;;;;17.20;5.00;;;23.10;50.30;;;;;;5033678;27;87561;-57
2024/03/07 07:23:19;;;;;;;8.85;4.03;;;23.10;50.40;;;;;;5031252;27;88372;-54
2024/03/07 07:25:46;;;;;;;11.88;4.88;;;23.20;50.30;;;;;;5026292;27;88399;-56
2024/03/07 07:28:12;;;;;;;14.32;4.78;;;23.10;50.20;;;;;;5025039;27;88338;-56
2024/03/07 07:30:37;;;;;;;10.65;4.05;;;23.10;50.40;;;;;;5030022;27;88841;-56
2024/03/07 07:33:03;;;;;;;13.18;4.03;;;23.10;50.40;;;;;;5021119;27;87494;-56
2024/03/07 07:35:29;;;;;;;12.45;3.63;;;23.10;50.40;;;;;;5019333;27;87510;-58
2024/03/07 07:37:57;;;;;;;11.32;4.25;;;23.10;50.70;;;;;;5032881;27;87276;-56
2024/03/07 07:40:27;;;;;;;10.88;3.78;;;23.10;50.50;;;;;;5030266;27;88993;-55
2024/03/07 07:42:53;;;;;;;10.10;4.10;;;23.10;50.50;;;;;;5026899;28;94374;-57
2024/03/07 07:45:21;;;;;;;9.27;4.07;;;23.00;50.60;;;;;;5025053;27;88525;-57
2024/03/07 07:47:51;;;;;;;12.77;4.80;;;23.10;50.60;;;;;;5033909;27;87001;-57
2024/03/07 07:50:19;;;;;;;14.18;5.00;;;23.00;50.60;;;;;;5022312;27;88686;-53
2024/03/07 07:52:49;;;;;;;10.82;4.40;;;23.00;49.60;;;;;;5028029;27;88846;-56
2024/03/07 07:55:17;;;;;;;10.57;4.68;;;22.90;48.90;;;;;;5033174;27;87578;-57
2024/03/07 07:57:46;;;;;;;11.00;4.32;;;22.90;47.80;;;;;;5027900;27;86976;-56
2024/03/07 08:00:21;;;;;;;10.75;4.30;;;22.90;47.90;;;;;;5016179;27;88695;-54
2024/03/07 08:02:54;;;;;;;9.68;3.65;;;22.80;47.90;;;;;;5029946;27;87340;-57
2024/03/07 08:05:24;;;;;;;10.15;4.22;;;22.70;47.40;;;;;;5037010;27;87419;-53
2024/03/07 08:07:51;;;;;;;12.48;4.40;;;22.60;48.10;;;;;;5031862;27;86542;-56
2024/03/07 08:10:18;;;;;;;10.82;4.53;;;22.60;48.10;;;;;;5014919;28;87427;-57
2024/03/07 08:12:44;;;;;;;8.63;4.00;;;22.60;48.00;;;;;;5018796;27;87934;-55
2024/03/07 08:15:13;;;;;;;8.57;4.50;;;22.60;48.20;;;;;;5023334;27;88413;-56
2024/03/07 08:17:44;;;;;;;8.00;3.95;;;22.50;47.60;;;;;;5018385;27;87354;-58
2024/03/07 08:20:11;;;;;;;8.63;4.22;;;22.50;48.00;;;;;;5033590;27;88287;-58
2024/03/07 08:22:41;;;;;;;10.32;4.60;;;22.40;47.50;;;;;;5021124;27;88391;-56
2024/03/07 08:25:12;;;;;;;9.05;4.10;;;22.50;47.70;;;;;;5043224;27;87289;-56
2024/03/07 08:27:40;;;;;;;9.25;5.53;;;22.50;47.50;;;;;;5020536;27;87357;-57
2024/03/07 08:30:15;;;;;;;6.63;3.90;;;22.40;47.10;;;;;;5031146;27;88293;-55
2024/03/07 08:32:52;;;;;;;10.93;4.38;;;22.40;47.20;;;;;;5025847;27;87159;-56
2024/03/07 08:35:18;;;;;;;9.30;5.07;;;22.40;47.00;;;;;;5030344;27;87813;-56
2024/03/07 08:37:55;;;;;;;10.52;4.45;;;22.50;47.30;;;;;;5026440;27;87190;-56
2024/03/07 08:40:25;;;;;;;7.47;4.43;;;22.30;47.10;;;;;;5012954;28;89816;-56
2024/03/07 08:42:56;;;;;;;8.80;4.72;;;22.40;47.70;;;;;;5014190;28;88843;-55
2024/03/07 08:45:22;;;;;;;12.40;5.38;;;22.40;46.90;;;;;;5011374;27;88513;-55
2024/03/07 08:47:56;;;;;;;10.27;4.72;;;22.50;47.60;;;;;;5018430;27;87601;-54
2024/03/07 08:50:23;;;;;;;8.30;4.93;;;22.40;47.10;;;;;;5013874;27;88092;-56
2024/03/07 08:52:50;;;;;;;8.50;4.78;;;22.40;47.10;;;;;;5030282;27;89522;-58
2024/03/07 08:55:19;;;;;;;7.65;4.40;;;22.40;47.40;;;;;;5012961;28;86954;-56
2024/03/07 08:57:46;;;;;;;11.50;5.80;;;22.50;47.80;;;;;;5012613;28;87489;-58
2024/03/07 09:00:22;;;;;;;11.70;5.40;;;22.50;47.20;;;;;;5015220;27;87460;-56
2024/03/07 09:02:51;;;;;;;8.90;4.95;;;22.40;47.00;;;;;;5015656;27;88474;-55
2024/03/07 09:05:18;;;;;;;11.73;5.10;;;22.60;47.70;;;;;;5030771;27;87980;-58
2024/03/07 09:07:46;;;;;;;11.10;4.78;;;22.50;47.20;;;;;;5027876;27;87116;-57
2024/03/07 09:10:12;;;;;;;10.07;5.43;;;22.50;47.10;;;;;;5028905;27;89140;-56
2024/03/07 09:12:38;;;;;;;10.63;6.07;;;22.50;47.40;;;;;;5018001;27;87828;-53
2024/03/07 09:15:04;;;;;;;12.48;5.75;;;22.50;47.00;;;;;;5022502;27;87208;-56
2024/03/07 09:17:30;;;;;;;10.88;5.35;;;22.60;47.20;;;;;;5025492;27;87727;-56
2024/03/07 09:19:56;;;;;;;7.78;5.10;;;22.60;46.80;;;;;;5010198;27;87688;-60
2024/03/07 09:22:21;;;;;;;64.07;23.25;;;22.60;46.70;;;;;;5021783;28;87684;-55
2024/03/07 09:24:47;;;;;;;17.83;7.45;;;22.60;47.80;;;;;;4995153;27;87626;-55
2024/03/07 09:27:19;;;;;;;13.60;7.38;;;22.60;47.60;;;;;;5023596;27;88417;-58
2024/03/07 09:29:47;;;;;;;15.82;7.40;;;22.60;46.80;;;;;;5010766;27;88120;-55
2024/03/07 09:32:13;;;;;;;17.73;8.93;;;22.60;46.90;;;;;;5001709;27;88897;-56
2024/03/07 09:34:38;;;;;;;21.23;8.38;;;22.60;46.80;;;;;;4997087;28;87449;-54
2024/03/07 09:37:06;;;;;;;20.02;8.80;;;22.70;46.80;;;;;;4994112;28;87438;-54
2024/03/07 09:39:34;;;;;;;23.88;9.15;;;22.70;46.80;;;;;;5004375;27;87626;-52
2024/03/07 09:42:09;;;;;;;18.17;7.97;;;22.70;46.50;;;;;;4992372;28;87904;-53
2024/03/07 09:44:39;;;;;;;17.08;7.03;;;22.70;46.70;;;;;;5028458;27;86977;-55
2024/03/07 09:47:05;;;;;;;20.67;8.40;;;22.70;46.30;;;;;;5005527;27;87023;-56
2024/03/07 09:49:35;;;;;;;16.42;7.50;;;22.70;46.10;;;;;;5009844;28;87351;-55
2024/03/07 09:52:08;;;;;;;20.23;8.57;;;22.60;46.10;;;;;;5005979;28;88051;-54
2024/03/07 09:54:37;;;;;;;17.83;8.35;;;22.70;46.40;;;;;;5035959;27;88247;-52
2024/03/07 09:57:07;;;;;;;16.90;8.02;;;22.70;46.80;;;;;;4999568;27;87284;-53
2024/03/07 09:59:41;;;;;;;16.50;8.13;;;22.70;46.60;;;;;;4998851;27;88150;-51
2024/03/07 10:02:09;;;;;;;15.48;7.90;;;22.60;46.40;;;;;;5005751;27;88559;-58
2024/03/07 10:04:48;;;;;;;22.98;8.02;;;22.70;46.50;;;;;;5010525;27;86928;-57
2024/03/07 10:07:15;;;;;;;13.03;6.67;;;22.70;45.90;;;;;;4997137;28;86975;-59
2024/03/07 10:09:41;;;;;;;16.70;8.63;;;22.90;46.20;;;;;;4999313;28;88369;-60
2024/03/07 10:12:12;;;;;;;18.83;7.35;;;22.80;45.60;;;;;;5006360;27;87821;-60
2024/03/07 10:14:58;;;;;;;14.82;8.05;;;22.80;45.20;;;;;;5003979;28;87347;-60
2024/03/07 10:17:27;;;;;;;14.07;7.78;;;22.50;44.50;;;;;;4995144;27;87321;-61
2024/03/07 10:19:54;;;;;;;19.58;10.50;;;22.20;44.30;;;;;;4993415;27;90399;-60
2024/03/07 10:22:21;;;;;;;14.73;8.68;;;22.50;43.50;;;;;;4999944;28;89165;-61
2024/03/07 10:24:55;;;;;;;18.20;8.07;;;22.60;43.30;;;;;;5009591;28;87840;-60
2024/03/07 10:27:21;;;;;;;16.52;8.27;;;22.50;43.60;;;;;;5009984;27;86857;-61
2024/03/07 10:29:49;;;;;;;16.20;8.05;;;22.40;43.60;;;;;;4997841;27;87785;-60
2024/03/07 10:32:20;;;;;;;16.88;8.93;;;22.30;42.80;;;;;;5011407;27;88226;-60
2024/03/07 10:34:48;;;;;;;13.60;7.13;;;22.40;43.50;;;;;;5003519;28;87570;-60
2024/03/07 10:37:17;;;;;;;12.43;7.72;;;22.30;42.60;;;;;;4999645;28;86881;-60
2024/03/07 10:39:45;;;;;;;;;;;22.30;42.40;;;;;;4997032;28;90045;-61
2024/03/07 10:42:15;;;;;;;15.52;7.82;;;22.20;42.00;;;;;;5009795;28;88397;-60
2024/03/07 10:44:44;;;;;;;15.80;8.05;;;22.30;42.60;;;;;;5020360;27;88423;-60
2024/03/07 10:47:23;;;;;;;12.55;6.85;;;22.30;40.70;;;;;;5004676;27;87892;-61
2024/03/07 10:50:22;;;;;;;13.17;8.10;;;22.30;42.00;;;;;;4995220;28;88653;-60
2024/03/07 10:52:47;;;;;;;;;;;22.20;41.90;;;;;;4990433;28;88886;-61
2024/03/07 10:55:26;;;;;;;13.65;7.13;;;22.20;41.70;;;;;;5000182;28;87346;-61
2024/03/07 10:58:01;;;;;;;11.23;7.07;;;22.20;41.80;;;;;;5008635;28;91347;-60
2024/03/07 11:00:35;;;;;;;11.60;7.20;;;22.10;41.20;;;;;;4992920;28;89597;-61
2024/03/07 11:03:09;;;;;;;13.18;8.10;;;22.00;40.70;;;;;;4990198;28;87402;-61
2024/03/07 11:05:36;;;;;;;13.63;8.10;;;22.00;40.40;;;;;;5000832;28;87414;-60
2024/03/07 11:08:12;;;;;;;12.07;7.05;;;21.90;40.50;;;;;;4988290;28;87764;-60
2024/03/07 11:10:39;;;;;;;12.48;8.05;;;22.00;40.10;;;;;;4990146;28;89101;-60
2024/03/07 11:13:10;;;;;;;12.38;6.97;;;22.00;40.00;;;;;;4990363;28;90246;-60
2024/03/07 11:15:37;;;;;;;10.75;6.60;;;22.00;40.20;;;;;;4998779;28;87680;-60
2024/03/07 11:18:03;;;;;;;11.55;7.18;;;22.20;41.30;;;;;;5008584;27;87297;-60
2024/03/07 11:20:40;;;;;;;9.85;6.25;;;22.20;39.70;;;;;;5010624;27;88709;-60
2024/03/07 11:23:33;;;;;;;12.15;7.18;;;22.30;39.50;;;;;;5002211;28;87277;-60
2024/03/07 11:26:09;;;;;;;11.30;6.75;;;22.40;40.50;;;;;;5004454;28;86898;-61
2024/03/07 11:28:39;;;;;;;10.15;6.05;;;22.50;39.30;;;;;;4996896;27;87323;-60
2024/03/07 11:31:14;;;;;;;10.27;6.90;;;22.40;39.10;;;;;;4993862;28;88246;-60
2024/03/07 11:33:41;;;;;;;10.90;5.82;;;22.30;38.00;;;;;;4988967;28;87905;-60
2024/03/07 11:36:13;;;;;;;11.18;6.53;;;22.40;40.00;;;;;;5001417;27;88150;-60
2024/03/07 11:38:48;;;;;;;9.45;6.45;;;22.40;38.20;;;;;;4989711;28;88523;-60
2024/03/07 11:41:14;;;;;;;8.70;6.03;;;22.40;39.20;;;;;;5004663;27;88593;-60
2024/03/07 11:43:43;;;;;;;11.13;5.60;;;22.40;40.10;;;;;;5010619;28;87096;-60
2024/03/07 11:46:11;;;;;;;6.25;4.35;;;22.40;40.40;;;;;;5011578;28;86953;-60
2024/03/07 11:48:43;;;;;;;8.87;5.90;;;22.50;40.60;;;;;;5003152;28;87597;-60
2024/03/07 11:51:18;;;;;;;6.75;4.72;;;22.70;40.70;;;;;;4996174;28;88335;-59
2024/03/07 11:53:47;;;;;;;8.65;6.05;;;22.70;41.10;;;;;;4996175;28;88193;-60
2024/03/07 11:56:16;;;;;;;9.07;4.97;;;22.70;40.60;;;;;;5010051;27;87311;-59
2024/03/07 11:58:52;;;;;;;6.47;4.47;;;22.70;41.10;;;;;;5005695;28;87341;-59
2024/03/07 12:01:17;;;;;;;9.25;5.45;;;22.80;42.10;;;;;;4991732;28;89166;-59
2024/03/07 12:03:44;;;;;;;9.70;4.63;;;23.00;42.10;;;;;;4992686;28;89710;-60
2024/03/07 12:06:17;;;;;;;8.52;4.97;;;23.00;41.70;;;;;;5006193;27;86993;-59
2024/03/07 12:08:43;;;;;;;7.93;4.57;;;23.00;42.10;;;;;;5009799;27;87476;-60
2024/03/07 12:11:12;;;;;;;6.05;4.20;;;23.00;42.10;;;;;;5010630;27;88046;-63
2024/03/07 12:13:38;;;;;;;5.82;4.05;;;23.10;42.20;;;;;;5006879;27;87722;-60
2024/03/07 12:16:07;;;;;;;5.95;4.18;;;23.20;42.30;;;;;;5013265;28;86958;-60
2024/03/07 12:18:34;;;;;;;;;;;23.20;42.30;;;;;;5042233;27;87452;-60
2024/03/07 12:21:03;;;;;;;8.93;4.70;;;23.30;42.60;;;;;;5003033;27;88566;-60
2024/03/07 12:23:28;;;;;;;5.35;3.83;;;23.30;42.50;;;;;;4988612;28;89104;-61
2024/03/07 12:26:04;;;;;;;5.70;4.10;;;23.30;42.10;;;;;;4994079;28;88475;-60
2024/03/07 12:28:33;;;;;;;8.55;4.75;;;23.20;42.40;;;;;;4993535;28;87457;-61
2024/03/07 12:31:02;;;;;;;7.38;4.47;;;23.10;41.00;;;;;;5010151;28;88639;-60
2024/03/07 12:33:29;;;;;;;8.02;4.97;;;23.00;41.60;;;;;;5000178;27;88063;-60
2024/03/07 12:36:05;;;;;;;8.63;4.60;;;22.80;41.90;;;;;;5001244;28;87287;-60
2024/03/07 12:38:35;;;;;;;6.53;3.85;;;22.80;42.40;;;;;;4998264;28;87565;-60
2024/03/07 12:41:16;;;;;;;6.15;3.90;;;22.70;42.30;;;;;;5009226;28;89467;-60
2024/03/07 12:43:43;;;;;;;7.38;4.35;;;22.70;43.00;;;;;;5003942;27;87675;-61
2024/03/07 12:46:13;;;;;;;7.55;4.10;;;22.60;43.50;;;;;;4992500;28;87215;-60
2024/03/07 12:48:39;;;;;;;8.50;4.80;;;22.60;43.70;;;;;;4992908;28;87271;-60
2024/03/07 12:51:06;;;;;;;7.03;4.63;;;22.70;43.90;;;;;;4994434;28;89253;-60
2024/03/07 12:53:33;;;;;;;4.97;3.53;;;22.60;43.50;;;;;;5012750;27;88076;-60